Wetterdaten: Woche 18.10.04 - 24.10.04 (KW43)
Datum Zeit Temperatur Luftfeuchte Luftdruck Regenmenge Wind Richtung Taupunkt Windchill
18.10.2004 00:00 8.5 C 81 % 1011.1 hPa 0.0 l/m 4.2 km/h (1 Bft) SW 5.3 C 8.0 C
18.10.2004 01:00 9.7 C 70 % 1011.2 hPa 0.0 l/m 8.1 km/h (2 Bft) W-NW 4.4 C 8.6 C
18.10.2004 02:00 8.8 C 77 % 1011.6 hPa 0.0 l/m 3.5 km/h (1 Bft) SO 4.9 C 8.4 C
18.10.2004 03:00 8.3 C 82 % 1011.6 hPa 0.0 l/m 0.1 km/h (0 Bft) SO 5.4 C 8.3 C
18.10.2004 04:00 8.6 C 84 % 1011.6 hPa 0.3 l/m 2.9 km/h (1 Bft) W 6.0 C 8.3 C
18.10.2004 05:00 8.1 C 88 % 1012.2 hPa 0.0 l/m 5.8 km/h (2 Bft) W 6.2 C 7.2 C
18.10.2004 06:00 7.6 C 92 % 1012.5 hPa 0.0 l/m 1.1 km/h (1 Bft) SW 6.4 C 7.5 C
18.10.2004 07:00 7.1 C 95 % 1012.9 hPa 0.0 l/m 2.6 km/h (1 Bft) SO 6.4 C 6.7 C
18.10.2004 08:00 7.2 C 96 % 1013.1 hPa 0.0 l/m 0.2 km/h (0 Bft) SO 6.6 C 7.2 C
18.10.2004 09:00 9.1 C 88 % 1013.6 hPa 0.0 l/m 1.4 km/h (1 Bft) W 7.3 C 9.0 C
18.10.2004 10:00 10.8 C 78 % 1013.4 hPa 0.3 l/m 4.3 km/h (1 Bft) SO 7.0 C 10.8 C
18.10.2004 11:00 10.5 C 77 % 1013.9 hPa 0.3 l/m 13.7 km/h (3 Bft) W-NW 6.6 C 9.9 C
18.10.2004 12:00 11.2 C 68 % 1014.3 hPa 0.0 l/m 5.3 km/h (1 Bft) W-NW 5.5 C 11.1 C
18.10.2004 13:00 12.9 C 63 % 1013.1 hPa 0.0 l/m 3.3 km/h (1 Bft) W-NW 6.1 C 12.9 C
18.10.2004 14:00 13.3 C 60 % 1013.0 hPa 0.0 l/m 12.5 km/h (3 Bft) NW 5.7 C 13.3 C
18.10.2004 15:00 13.1 C 57 % 1013.1 hPa 0.0 l/m 20.3 km/h (4 Bft) W-NW 4.8 C 13.1 C
18.10.2004 16:00 12.5 C 63 % 1013.2 hPa 0.0 l/m 17.5 km/h (3 Bft) W-NW 5.6 C 12.5 C
18.10.2004 17:00 11.1 C 75 % 1013.3 hPa 0.0 l/m 17.2 km/h (3 Bft) W-NW 6.8 C 11.1 C
18.10.2004 18:00 10.2 C 79 % 1013.5 hPa 0.0 l/m 2.1 km/h (1 Bft) W-NW 6.8 C 10.2 C
18.10.2004 19:00 9.0 C 86 % 1013.7 hPa 0.0 l/m 1.5 km/h (1 Bft) S 6.7 C 8.9 C
18.10.2004 20:00 7.9 C 91 % 1014.8 hPa 0.0 l/m 2.3 km/h (1 Bft) S-SO 6.6 C 7.8 C
18.10.2004 21:00 7.0 C 96 % 1015.0 hPa 0.0 l/m 0.2 km/h (0 Bft) S-SO 6.4 C 7.0 C
18.10.2004 22:00 6.2 C 98 % 1015.1 hPa 0.0 l/m 0.0 km/h (0 Bft) N 5.9 C 6.2 C
18.10.2004 23:00 5.8 C 99 % 1015.1 hPa 0.0 l/m 0.0 km/h (0 Bft) N 5.7 C 5.8 C
19.10.2004 00:00 6.5 C 100 % 1015.0 hPa 0.0 l/m 0.0 km/h (0 Bft) N 6.5 C 6.5 C
19.10.2004 01:00 6.7 C 100 % 1014.0 hPa 0.0 l/m 0.2 km/h (0 Bft) S-SO 6.7 C 6.7 C
19.10.2004 02:00 6.7 C 100 % 1014.0 hPa 0.3 l/m 0.5 km/h (0 Bft) W 6.7 C 6.6 C
19.10.2004 03:00 6.8 C 100 % 1013.5 hPa 0.0 l/m 0.1 km/h (0 Bft) N 6.8 C 6.8 C
19.10.2004 04:00 6.8 C 100 % 1012.9 hPa 0.0 l/m 0.1 km/h (0 Bft) N 6.8 C 6.8 C
19.10.2004 05:00 6.8 C 100 % 1012.9 hPa 0.0 l/m 0.2 km/h (0 Bft) NW 6.8 C 6.8 C
19.10.2004 06:00 6.7 C 100 % 1012.3 hPa 0.0 l/m 0.0 km/h (0 Bft) N 6.7 C 6.7 C
19.10.2004 07:00 7.1 C 100 % 1011.8 hPa 0.3 l/m 0.0 km/h (0 Bft) N 7.1 C 7.1 C
19.10.2004 08:00 7.4 C 100 % 1011.9 hPa 0.6 l/m 0.0 km/h (0 Bft) N 7.4 C 7.4 C
19.10.2004 09:00 7.7 C 100 % 1011.9 hPa 0.6 l/m 0.0 km/h (0 Bft) N 7.7 C 7.7 C
19.10.2004 10:00 8.1 C 100 % 1011.4 hPa 0.6 l/m 0.0 km/h (0 Bft) N 8.1 C 8.1 C
19.10.2004 11:00 8.8 C 100 % 1011.6 hPa 0.6 l/m 0.0 km/h (0 Bft) N 8.8 C 8.8 C
19.10.2004 12:00 9.2 C 100 % 1011.5 hPa 1.2 l/m 0.6 km/h (0 Bft) O 9.2 C 9.2 C
19.10.2004 13:00 9.9 C 100 % 1011.0 hPa 0.6 l/m 0.1 km/h (0 Bft) O-SO 9.8 C 9.9 C
19.10.2004 14:00 9.9 C 97 % 1010.7 hPa 0.6 l/m 2.9 km/h (1 Bft) O-SO 9.4 C 9.6 C
19.10.2004 15:00 9.8 C 97 % 1011.0 hPa 1.5 l/m 2.6 km/h (1 Bft) O-SO 9.4 C 9.5 C
19.10.2004 16:00 10.0 C 99 % 1010.5 hPa 1.5 l/m 0.3 km/h (0 Bft) O-SO 9.9 C 10.0 C
19.10.2004 17:00 9.9 C 100 % 1011.4 hPa 1.2 l/m 0.0 km/h (0 Bft) N 9.8 C 9.9 C
19.10.2004 18:00 9.8 C 98 % 1011.4 hPa 0.9 l/m 0.0 km/h (0 Bft) N 9.6 C 9.8 C
19.10.2004 19:00 9.7 C 99 % 1012.5 hPa 1.5 l/m 0.0 km/h (0 Bft) N 9.6 C 9.7 C
19.10.2004 20:00 9.7 C 100 % 1012.5 hPa 1.9 l/m 0.0 km/h (0 Bft) N 9.6 C 9.7 C
19.10.2004 21:00 9.7 C 100 % 1012.5 hPa 1.2 l/m 0.0 km/h (0 Bft) N 9.7 C 9.7 C
19.10.2004 22:00 9.7 C 100 % 1012.5 hPa 1.5 l/m 0.0 km/h (0 Bft) N 9.7 C 9.7 C
19.10.2004 23:00 9.6 C 100 % 1012.5 hPa 0.3 l/m 0.0 km/h (0 Bft) N 9.6 C 9.6 C
20.10.2004 00:00 9.7 C 100 % 1012.5 hPa 1.2 l/m 0.0 km/h (0 Bft) N 9.7 C 9.7 C
20.10.2004 01:00 9.7 C 100 % 1012.5 hPa 0.0 l/m 0.0 km/h (0 Bft) N 9.7 C 9.7 C
20.10.2004 02:00 9.7 C 100 % 1012.3 hPa 0.0 l/m 0.0 km/h (0 Bft) N 9.7 C 9.7 C
20.10.2004 03:00 9.3 C 100 % 1011.5 hPa 0.0 l/m 1.0 km/h (0 Bft) O-SO 9.3 C 9.2 C
20.10.2004 04:00 8.4 C 100 % 1011.5 hPa 0.0 l/m 1.7 km/h (1 Bft) O-SO 8.4 C 8.3 C
20.10.2004 05:00 8.3 C 100 % 1011.2 hPa 0.3 l/m 3.5 km/h (1 Bft) O-SO 8.3 C 8.1 C
20.10.2004 06:00 9.0 C 100 % 1010.5 hPa 0.0 l/m 1.6 km/h (1 Bft) O-SO 9.0 C 8.8 C
20.10.2004 07:00 9.1 C 100 % 1010.5 hPa 0.0 l/m 0.7 km/h (0 Bft) O-SO 9.1 C 9.1 C
20.10.2004 08:00 9.2 C 100 % 1010.5 hPa 0.0 l/m 0.0 km/h (0 Bft) O-SO 9.2 C 9.2 C
20.10.2004 09:00 9.6 C 100 % 1011.0 hPa 0.0 l/m 2.0 km/h (1 Bft) O-SO 9.6 C 9.3 C
20.10.2004 10:00 10.3 C 100 % 1010.6 hPa 0.0 l/m 2.2 km/h (1 Bft) S 10.3 C 10.2 C
20.10.2004 11:00 11.2 C 100 % 1010.2 hPa 0.0 l/m 0.2 km/h (0 Bft) W 11.2 C 11.2 C
20.10.2004 12:00 12.4 C 96 % 1010.0 hPa 0.0 l/m 0.6 km/h (0 Bft) W-NW 11.9 C 12.4 C
20.10.2004 13:00 12.9 C 95 % 1009.9 hPa 0.0 l/m 2.3 km/h (1 Bft) S 12.1 C 12.9 C
20.10.2004 14:00 12.9 C 96 % 1008.9 hPa 0.0 l/m 0.1 km/h (0 Bft) N 12.3 C 12.9 C
20.10.2004 15:00 13.2 C 97 % 1008.9 hPa 0.0 l/m 0.0 km/h (0 Bft) N 12.8 C 13.2 C
20.10.2004 16:00 13.2 C 98 % 1008.9 hPa 0.3 l/m 0.0 km/h (0 Bft) N 12.9 C 13.2 C
20.10.2004 17:00 13.0 C 97 % 1008.9 hPa 2.2 l/m 0.2 km/h (0 Bft) O-SO 12.5 C 13.0 C
20.10.2004 18:00 12.8 C 97 % 1009.0 hPa 2.8 l/m 0.0 km/h (0 Bft) N 12.3 C 12.8 C
20.10.2004 19:00 12.3 C 99 % 1008.7 hPa 1.2 l/m 0.0 km/h (0 Bft) N 12.2 C 12.3 C
20.10.2004 20:00 12.0 C 100 % 1008.0 hPa 0.0 l/m 0.0 km/h (0 Bft) N 12.0 C 12.0 C
20.10.2004 21:00 11.9 C 100 % 1008.0 hPa 0.0 l/m 0.7 km/h (0 Bft) SO 11.9 C 11.9 C
20.10.2004 22:00 11.9 C 100 % 1008.1 hPa 0.0 l/m 1.0 km/h (0 Bft) SO 11.9 C 11.9 C
20.10.2004 23:00 11.3 C 100 % 1009.2 hPa 0.0 l/m 2.2 km/h (1 Bft) S 11.3 C 11.3 C
21.10.2004 00:00 10.9 C 100 % 1009.2 hPa 0.0 l/m 3.6 km/h (1 Bft) O-SO 10.9 C 10.9 C
21.10.2004 01:00 11.3 C 100 % 1009.2 hPa 0.0 l/m 2.3 km/h (1 Bft) O 11.3 C 11.3 C
21.10.2004 02:00 11.5 C 100 % 1009.3 hPa 0.0 l/m 2.3 km/h (1 Bft) O 11.5 C 11.5 C
21.10.2004 03:00 11.4 C 100 % 1009.5 hPa 1.9 l/m 5.1 km/h (1 Bft) O-SO 11.4 C 11.4 C
21.10.2004 04:00 11.7 C 100 % 1010.1 hPa 0.3 l/m 7.9 km/h (2 Bft) O-SO 11.7 C 11.7 C
21.10.2004 05:00 12.3 C 100 % 1011.0 hPa 0.0 l/m 5.8 km/h (1 Bft) O-SO 12.3 C 12.3 C
21.10.2004 06:00 12.6 C 100 % 1011.4 hPa 0.0 l/m 2.9 km/h (1 Bft) O 12.6 C 12.6 C
21.10.2004 07:00 12.3 C 100 % 1012.6 hPa 1.5 l/m 2.1 km/h (1 Bft) SO 12.3 C 12.3 C
21.10.2004 08:00 12.5 C 100 % 1013.7 hPa 0.0 l/m 1.4 km/h (1 Bft) SO 12.5 C 12.5 C
21.10.2004 09:00 13.2 C 100 % 1015.0 hPa 0.0 l/m 2.8 km/h (1 Bft) SO 13.2 C 13.2 C
21.10.2004 10:00 14.0 C 100 % 1016.1 hPa 0.0 l/m 1.4 km/h (1 Bft) SO 14.0 C 14.0 C
21.10.2004 11:00 14.8 C 95 % 1016.7 hPa 0.0 l/m 13.3 km/h (3 Bft) W-NW 13.9 C 14.8 C
21.10.2004 12:00 16.8 C 70 % 1016.7 hPa 0.0 l/m 19.9 km/h (4 Bft) W-NW 11.2 C 16.8 C
21.10.2004 13:00 17.6 C 63 % 1016.6 hPa 0.0 l/m 17.2 km/h (3 Bft) W-NW 10.5 C 17.6 C
21.10.2004 14:00 18.1 C 59 % 1016.6 hPa 0.0 l/m 11.3 km/h (2 Bft) W-NW 10.0 C 18.1 C
21.10.2004 15:00 18.9 C 56 % 1016.5 hPa 0.0 l/m 5.4 km/h (1 Bft) W-NW 9.9 C 18.9 C
21.10.2004 16:00 18.9 C 56 % 1016.5 hPa 0.0 l/m 5.5 km/h (1 Bft) W-NW 9.9 C 18.9 C
21.10.2004 17:00 16.9 C 61 % 1016.7 hPa 0.0 l/m 5.7 km/h (1 Bft) W-NW 9.4 C 16.9 C
21.10.2004 18:00 14.5 C 72 % 1017.8 hPa 0.0 l/m 0.9 km/h (0 Bft) S 9.4 C 14.5 C
21.10.2004 19:00 12.5 C 83 % 1019.0 hPa 0.0 l/m 4.1 km/h (1 Bft) O-SO 9.6 C 12.5 C
21.10.2004 20:00 10.9 C 90 % 1019.7 hPa 0.0 l/m 3.7 km/h (1 Bft) O-SO 9.3 C 10.9 C
21.10.2004 21:00 9.8 C 95 % 1020.8 hPa 0.0 l/m 0.9 km/h (0 Bft) O-SO 9.1 C 9.8 C
21.10.2004 22:00 9.1 C 98 % 1020.9 hPa 0.0 l/m 0.2 km/h (0 Bft) O-SO 8.8 C 9.1 C
21.10.2004 23:00 8.7 C 99 % 1021.6 hPa 0.0 l/m 0.0 km/h (0 Bft) N 8.6 C 8.7 C
22.10.2004 00:00 8.1 C 99 % 1021.4 hPa 0.0 l/m 0.3 km/h (0 Bft) O-SO 7.9 C 8.0 C
22.10.2004 01:00 7.5 C 100 % 1022.2 hPa 0.0 l/m 0.5 km/h (0 Bft) O-SO 7.5 C 7.5 C
22.10.2004 02:00 6.9 C 100 % 1022.3 hPa 0.0 l/m 0.0 km/h (0 Bft) N 6.9 C 6.9 C
22.10.2004 03:00 6.7 C 100 % 1021.4 hPa 0.0 l/m 0.0 km/h (0 Bft) N 6.7 C 6.7 C
22.10.2004 04:00 6.6 C 100 % 1021.4 hPa 0.0 l/m 0.0 km/h (0 Bft) N 6.6 C 6.6 C
22.10.2004 05:00 6.9 C 100 % 1021.2 hPa 0.0 l/m 0.0 km/h (0 Bft) N 6.9 C 6.9 C
22.10.2004 06:00 6.3 C 100 % 1021.3 hPa 0.0 l/m 1.9 km/h (1 Bft) O-SO 6.3 C 6.2 C
22.10.2004 07:00 6.3 C 100 % 1021.3 hPa 0.0 l/m 2.2 km/h (1 Bft) O-SO 6.3 C 6.0 C
22.10.2004 08:00 5.9 C 100 % 1022.4 hPa 0.0 l/m 0.0 km/h (0 Bft) N 5.9 C 5.9 C
22.10.2004 09:00 7.2 C 100 % 1022.2 hPa 0.0 l/m 0.0 km/h (0 Bft) N 7.2 C 7.2 C
22.10.2004 10:00 8.4 C 100 % 1022.0 hPa 0.0 l/m 0.9 km/h (0 Bft) O-SO 8.4 C 8.3 C
22.10.2004 11:00 10.1 C 97 % 1021.8 hPa 0.0 l/m 0.6 km/h (0 Bft) O-SO 9.6 C 10.1 C
22.10.2004 12:00 12.7 C 80 % 1021.0 hPa 0.0 l/m 0.6 km/h (0 Bft) O-SO 9.3 C 12.7 C
22.10.2004 13:00 15.3 C 71 % 1020.1 hPa 0.0 l/m 0.2 km/h (0 Bft) O-SO 10.0 C 15.3 C
22.10.2004 14:00 17.2 C 66 % 1018.9 hPa 0.0 l/m 2.9 km/h (1 Bft) W-NW 10.8 C 17.2 C
22.10.2004 15:00 17.9 C 65 % 1018.5 hPa 0.0 l/m 1.7 km/h (1 Bft) W-NW 11.2 C 17.9 C
22.10.2004 16:00 18.2 C 66 % 1017.9 hPa 0.0 l/m 0.2 km/h (0 Bft) N 11.8 C 18.2 C
22.10.2004 17:00 17.3 C 73 % 1017.7 hPa 0.0 l/m 0.1 km/h (0 Bft) N 12.3 C 17.3 C
22.10.2004 18:00 15.4 C 83 % 1018.0 hPa 0.0 l/m 1.4 km/h (1 Bft) O 12.6 C 15.4 C
22.10.2004 19:00 14.4 C 90 % 1019.0 hPa 0.0 l/m 0.0 km/h (0 Bft) N 12.8 C 14.4 C
22.10.2004 20:00 13.0 C 93 % 1019.3 hPa 0.0 l/m 0.5 km/h (0 Bft) O 11.9 C 13.0 C
22.10.2004 21:00 11.9 C 96 % 1019.5 hPa 0.0 l/m 0.2 km/h (0 Bft) O 11.4 C 11.9 C
22.10.2004 22:00 11.5 C 98 % 1020.4 hPa 0.0 l/m 0.3 km/h (0 Bft) O 11.3 C 11.5 C
22.10.2004 23:00 11.5 C 100 % 1020.6 hPa 0.0 l/m 0.5 km/h (0 Bft) O 11.4 C 11.5 C
23.10.2004 00:00 11.3 C 100 % 1020.6 hPa 0.0 l/m 0.2 km/h (0 Bft) O 11.3 C 11.3 C
23.10.2004 01:00 11.6 C 100 % 1020.6 hPa 0.0 l/m 0.2 km/h (0 Bft) O 11.6 C 11.6 C
23.10.2004 02:00 11.5 C 100 % 1020.6 hPa 0.0 l/m 0.0 km/h (0 Bft) N 11.5 C 11.5 C
23.10.2004 03:00 11.7 C 100 % 1020.5 hPa 0.0 l/m 0.1 km/h (0 Bft) N 11.7 C 11.7 C
23.10.2004 04:00 11.5 C 100 % 1020.4 hPa 0.0 l/m 0.0 km/h (0 Bft) N 11.5 C 11.5 C
23.10.2004 05:00 11.3 C 100 % 1019.9 hPa 0.0 l/m 0.0 km/h (0 Bft) N 11.3 C 11.3 C
23.10.2004 06:00 11.4 C 100 % 1020.6 hPa 0.0 l/m 0.0 km/h (0 Bft) N 11.4 C 11.4 C
23.10.2004 07:00 11.5 C 100 % 1020.6 hPa 0.0 l/m 0.0 km/h (0 Bft) N 11.5 C 11.5 C
23.10.2004 08:00 11.7 C 100 % 1020.5 hPa 0.0 l/m 0.4 km/h (0 Bft) NO 11.7 C 11.7 C
23.10.2004 09:00 12.3 C 100 % 1020.5 hPa 0.0 l/m 0.0 km/h (0 Bft) N 12.3 C 12.3 C
23.10.2004 10:00 13.3 C 97 % 1020.5 hPa 0.0 l/m 0.0 km/h (0 Bft) N 12.8 C 13.3 C
23.10.2004 11:00 14.0 C 89 % 1020.4 hPa 0.0 l/m 3.0 km/h (1 Bft) W-NW 12.2 C 14.0 C
23.10.2004 12:00 15.2 C 84 % 1020.1 hPa 0.0 l/m 0.5 km/h (0 Bft) W-NW 12.6 C 15.2 C
23.10.2004 13:00 17.7 C 75 % 1019.0 hPa 0.0 l/m 2.5 km/h (1 Bft) O-SO 13.2 C 17.7 C
23.10.2004 14:00 19.6 C 66 % 1017.9 hPa 0.0 l/m 10.1 km/h (2 Bft) O-SO 13.1 C 19.6 C
23.10.2004 15:00 20.4 C 63 % 1017.3 hPa 0.0 l/m 7.7 km/h (2 Bft) O-SO 13.1 C 20.4 C
23.10.2004 16:00 20.1 C 63 % 1017.3 hPa 0.0 l/m 2.0 km/h (1 Bft) SO 12.9 C 20.1 C
23.10.2004 17:00 18.5 C 69 % 1016.5 hPa 0.0 l/m 0.7 km/h (0 Bft) O 12.6 C 18.5 C
23.10.2004 18:00 16.2 C 80 % 1016.8 hPa 0.0 l/m 5.1 km/h (1 Bft) O-SO 12.7 C 16.2 C
23.10.2004 19:00 14.7 C 87 % 1017.0 hPa 0.0 l/m 4.5 km/h (1 Bft) O-SO 12.5 C 14.7 C
23.10.2004 20:00 12.7 C 92 % 1017.3 hPa 0.0 l/m 0.0 km/h (0 Bft) N 11.4 C 12.7 C
23.10.2004 21:00 11.8 C 96 % 1018.2 hPa 0.0 l/m 0.7 km/h (0 Bft) O-SO 11.2 C 11.8 C
23.10.2004 22:00 10.8 C 98 % 1018.6 hPa 0.0 l/m 1.0 km/h (0 Bft) O-SO 10.5 C 10.8 C
23.10.2004 23:00 10.2 C 98 % 1018.3 hPa 0.0 l/m 0.0 km/h (0 Bft) N 10.0 C 10.2 C
24.10.2004 00:00 10.6 C 100 % 1018.5 hPa 0.0 l/m 1.3 km/h (1 Bft) O-SO 10.5 C 10.6 C
24.10.2004 01:00 10.8 C 100 % 1018.1 hPa 0.0 l/m 0.0 km/h (0 Bft) N 10.8 C 10.8 C
24.10.2004 02:00 10.9 C 100 % 1018.5 hPa 0.0 l/m 1.8 km/h (1 Bft) O-SO 10.9 C 10.9 C
24.10.2004 03:00 10.9 C 100 % 1018.6 hPa 0.0 l/m 3.6 km/h (1 Bft) O-SO 10.9 C 10.9 C
24.10.2004 04:00 11.3 C 100 % 1017.5 hPa 0.0 l/m 2.1 km/h (1 Bft) O-SO 11.3 C 11.3 C
24.10.2004 05:00 11.6 C 100 % 1017.4 hPa 0.0 l/m 0.0 km/h (0 Bft) N 11.6 C 11.6 C
24.10.2004 06:00 11.2 C 100 % 1017.9 hPa 0.0 l/m 0.6 km/h (0 Bft) O-NO 11.2 C 11.2 C
24.10.2004 07:00 10.9 C 100 % 1017.5 hPa 0.0 l/m 0.9 km/h (0 Bft) O 10.9 C 10.9 C
24.10.2004 08:00 11.1 C 100 % 1018.2 hPa 0.0 l/m 0.3 km/h (0 Bft) O-SO 11.1 C 11.1 C
24.10.2004 09:00 11.9 C 100 % 1018.4 hPa 0.0 l/m 0.0 km/h (0 Bft) N 11.9 C 11.9 C
24.10.2004 10:00 13.3 C 90 % 1018.2 hPa 0.0 l/m 1.2 km/h (1 Bft) NO 11.8 C 13.3 C
24.10.2004 11:00 15.1 C 78 % 1017.0 hPa 0.0 l/m 7.2 km/h (2 Bft) O-SO 11.3 C 15.1 C
24.10.2004 12:00 16.8 C 71 % 1016.4 hPa 0.0 l/m 5.6 km/h (1 Bft) O-SO 11.5 C 16.8 C
24.10.2004 13:00 18.5 C 63 % 1015.4 hPa 0.0 l/m 2.4 km/h (1 Bft) O-SO 11.3 C 18.5 C
24.10.2004 14:00 20.3 C 55 % 1014.2 hPa 0.0 l/m 3.3 km/h (1 Bft) O-SO 10.8 C 20.3 C
24.10.2004 15:00 20.8 C 50 % 1013.2 hPa 0.0 l/m 1.1 km/h (0 Bft) SO 10.0 C 20.8 C
24.10.2004 16:00 20.5 C 52 % 1012.5 hPa 0.0 l/m 0.1 km/h (0 Bft) N 10.4 C 20.5 C
24.10.2004 17:00 19.0 C 62 % 1012.3 hPa 0.0 l/m 0.2 km/h (0 Bft) SO 11.4 C 19.0 C
24.10.2004 18:00 16.0 C 78 % 1012.7 hPa 0.0 l/m 1.9 km/h (1 Bft) O-SO 12.2 C 16.0 C
24.10.2004 19:00 13.5 C 88 % 1013.0 hPa 0.0 l/m 2.3 km/h (1 Bft) O-SO 11.6 C 13.5 C
24.10.2004 20:00 11.9 C 94 % 1014.2 hPa 0.0 l/m 1.0 km/h (0 Bft) O-SO 10.9 C 11.9 C
24.10.2004 21:00 11.0 C 96 % 1014.4 hPa 0.0 l/m 0.0 km/h (0 Bft) N 10.3 C 11.0 C
24.10.2004 22:00 10.3 C 97 % 1014.5 hPa 0.0 l/m 0.0 km/h (0 Bft) N 9.9 C 10.3 C
24.10.2004 23:00 9.8 C 98 % 1014.6 hPa 0.0 l/m 0.0 km/h (0 Bft) N 9.5 C 9.8 C
Min-Datum _ 18.10.04 24.10.04 20.10.04 - 18.10.04 - 18.10.04 22.10.04
_ Min-Zeit 23:11 15:50 19:44 - 02:23 - 15:05 07:26
Minimum _ 5.3 C 47 % 1008.0 hPa - 0.0 km/h (0 Bft) - 3.9 C 4.3 C
Max-Datum _ 24.10.04 18.10.04 22.10.04 20.10.04 18.10.04 - 21.10.04 24.10.04
_ Max-Zeit 15:10 23:44 08:47 17:00 14:59 - 11:35 15:10
Maximum _ 20.9 C 100 % 1022.4 hPa 2.8 l/m 42.8 km/h
NW (6 Bft)
- 15.1 C 20.9 C
Durchschnitt _ 11.5 C 91 % 1015.2 hPa #30.1 l/m 2.2 km/h (1 Bft) O-SO 9.8 C 11.5 C

Durchschnitt Minimum Temp.10.9 C
Durchschnitt Maximum Temp.12.1 C
© Kaiko 2004